sensor_id;sensor_type;location;lat;lon;timestamp;pressure;altitude;pressure_sealevel;temperature;humidity
4199;BME280;2113;50.946;14.610;2023-04-24T00:01:55;95734.56;;;7.79;93.88
4199;BME280;2113;50.946;14.610;2023-04-24T00:04:26;95734.84;;;7.68;94.13
4199;BME280;2113;50.946;14.610;2023-04-24T00:06:54;95729.44;;;7.62;93.87
4199;BME280;2113;50.946;14.610;2023-04-24T00:09:24;95726.59;;;7.47;94.38
4199;BME280;2113;50.946;14.610;2023-04-24T00:11:53;95722.41;;;7.54;95.32
4199;BME280;2113;50.946;14.610;2023-04-24T00:14:21;95722.31;;;7.64;95.27
4199;BME280;2113;50.946;14.610;2023-04-24T00:16:49;95717.66;;;7.75;94.39
4199;BME280;2113;50.946;14.610;2023-04-24T00:19:18;95719.56;;;7.65;94.68
4199;BME280;2113;50.946;14.610;2023-04-24T00:21:49;95724.69;;;7.57;94.84
4199;BME280;2113;50.946;14.610;2023-04-24T00:24:18;95728.94;;;7.32;94.20
4199;BME280;2113;50.946;14.610;2023-04-24T00:26:46;95727.41;;;7.47;95.86
4199;BME280;2113;50.946;14.610;2023-04-24T00:29:14;95712.91;;;7.63;97.36
4199;BME280;2113;50.946;14.610;2023-04-24T00:31:43;95724.50;;;7.76;96.64
4199;BME280;2113;50.946;14.610;2023-04-24T00:34:11;95722.94;;;7.92;97.25
4199;BME280;2113;50.946;14.610;2023-04-24T00:36:39;95714.34;;;7.99;96.30
4199;BME280;2113;50.946;14.610;2023-04-24T00:39:09;95714.50;;;7.90;95.24
4199;BME280;2113;50.946;14.610;2023-04-24T00:41:37;95707.56;;;7.72;95.12
4199;BME280;2113;50.946;14.610;2023-04-24T00:44:05;95712.38;;;7.59;95.54
4199;BME280;2113;50.946;14.610;2023-04-24T00:46:35;95699.72;;;7.98;97.17
4199;BME280;2113;50.946;14.610;2023-04-24T00:49:04;95706.78;;;8.22;96.06
4199;BME280;2113;50.946;14.610;2023-04-24T00:51:33;95704.34;;;8.12;95.44
4199;BME280;2113;50.946;14.610;2023-04-24T00:54:01;95702.69;;;8.11;94.97
4199;BME280;2113;50.946;14.610;2023-04-24T00:56:30;95701.56;;;8.14;95.78
4199;BME280;2113;50.946;14.610;2023-04-24T00:58:59;95707.28;;;8.17;94.76
4199;BME280;2113;50.946;14.610;2023-04-24T01:01:28;95703.06;;;8.25;95.56
4199;BME280;2113;50.946;14.610;2023-04-24T01:03:57;95708.69;;;8.46;95.55
4199;BME280;2113;50.946;14.610;2023-04-24T01:06:28;95704.78;;;8.50;95.25
4199;BME280;2113;50.946;14.610;2023-04-24T01:08:58;95701.25;;;8.59;94.54
4199;BME280;2113;50.946;14.610;2023-04-24T01:11:30;95699.47;;;8.60;94.90
4199;BME280;2113;50.946;14.610;2023-04-24T01:13:59;95697.66;;;8.76;94.01
4199;BME280;2113;50.946;14.610;2023-04-24T01:16:28;95694.09;;;8.94;93.46
4199;BME280;2113;50.946;14.610;2023-04-24T01:18:56;95700.59;;;8.89;93.13
4199;BME280;2113;50.946;14.610;2023-04-24T01:21:26;95700.59;;;8.81;92.96
4199;BME280;2113;50.946;14.610;2023-04-24T01:23:58;95703.19;;;8.89;93.39
4199;BME280;2113;50.946;14.610;2023-04-24T01:26:26;95703.56;;;8.86;93.29
4199;BME280;2113;50.946;14.610;2023-04-24T01:28:54;95709.22;;;9.06;93.34
4199;BME280;2113;50.946;14.610;2023-04-24T01:31:23;95713.97;;;8.86;93.04
4199;BME280;2113;50.946;14.610;2023-04-24T01:33:52;95706.81;;;8.97;94.19
4199;BME280;2113;50.946;14.610;2023-04-24T01:36:21;95704.84;;;9.07;93.42
4199;BME280;2113;50.946;14.610;2023-04-24T01:38:53;95702.72;;;9.02;93.51
4199;BME280;2113;50.946;14.610;2023-04-24T01:41:23;95699.47;;;9.00;94.22
4199;BME280;2113;50.946;14.610;2023-04-24T01:43:51;95696.06;;;9.00;93.79
4199;BME280;2113;50.946;14.610;2023-04-24T01:46:20;95689.53;;;8.96;94.08
4199;BME280;2113;50.946;14.610;2023-04-24T01:48:48;95686.97;;;8.87;94.46
4199;BME280;2113;50.946;14.610;2023-04-24T01:51:19;95687.91;;;9.11;94.04
4199;BME280;2113;50.946;14.610;2023-04-24T01:53:47;95695.56;;;9.04;94.02
4199;BME280;2113;50.946;14.610;2023-04-24T01:56:15;95686.94;;;9.04;94.21
4199;BME280;2113;50.946;14.610;2023-04-24T01:58:45;95687.75;;;8.96;94.79
4199;BME280;2113;50.946;14.610;2023-04-24T02:01:15;95681.56;;;8.97;94.99
4199;BME280;2113;50.946;14.610;2023-04-24T02:03:47;95675.22;;;9.00;94.65
4199;BME280;2113;50.946;14.610;2023-04-24T02:06:15;95676.03;;;8.92;94.84
4199;BME280;2113;50.946;14.610;2023-04-24T02:08:43;95670.81;;;8.92;94.79
4199;BME280;2113;50.946;14.610;2023-04-24T02:11:12;95666.91;;;9.04;94.47
4199;BME280;2113;50.946;14.610;2023-04-24T02:13:40;95666.59;;;9.15;93.78
4199;BME280;2113;50.946;14.610;2023-04-24T02:16:10;95670.66;;;9.10;93.66
4199;BME280;2113;50.946;14.610;2023-04-24T02:18:38;95672.28;;;9.11;93.47
4199;BME280;2113;50.946;14.610;2023-04-24T02:21:06;95675.19;;;9.16;93.17
4199;BME280;2113;50.946;14.610;2023-04-24T02:23:34;95671.81;;;9.15;93.03
4199;BME280;2113;50.946;14.610;2023-04-24T02:26:04;95673.25;;;9.18;93.08
4199;BME280;2113;50.946;14.610;2023-04-24T02:28:33;95664.16;;;9.14;93.01
4199;BME280;2113;50.946;14.610;2023-04-24T02:31:01;95660.75;;;9.13;92.94
4199;BME280;2113;50.946;14.610;2023-04-24T02:33:30;95663.84;;;9.01;93.48
4199;BME280;2113;50.946;14.610;2023-04-24T02:35:58;95661.06;;;9.02;93.37
4199;BME280;2113;50.946;14.610;2023-04-24T02:38:27;95666.09;;;9.12;91.89
4199;BME280;2113;50.946;14.610;2023-04-24T02:40:55;95667.88;;;9.19;91.40
4199;BME280;2113;50.946;14.610;2023-04-24T02:43:25;95668.72;;;9.12;92.10
4199;BME280;2113;50.946;14.610;2023-04-24T02:45:53;95679.63;;;9.07;92.12
4199;BME280;2113;50.946;14.610;2023-04-24T02:48:22;95677.03;;;8.99;92.17
4199;BME280;2113;50.946;14.610;2023-04-24T02:50:52;95667.38;;;9.16;92.18
4199;BME280;2113;50.946;14.610;2023-04-24T02:53:20;95666.41;;;9.33;90.78
4199;BME280;2113;50.946;14.610;2023-04-24T02:55:48;95674.72;;;9.29;91.00
4199;BME280;2113;50.946;14.610;2023-04-24T02:58:16;95669.50;;;9.29;90.61
4199;BME280;2113;50.946;14.610;2023-04-24T03:00:46;95667.09;;;9.11;91.78
4199;BME280;2113;50.946;14.610;2023-04-24T03:03:15;95664.47;;;9.03;91.98
4199;BME280;2113;50.946;14.610;2023-04-24T03:05:43;95675.22;;;9.00;91.98
4199;BME280;2113;50.946;14.610;2023-04-24T03:08:13;95676.03;;;8.84;92.51
4199;BME280;2113;50.946;14.610;2023-04-24T03:10:43;95672.59;;;8.75;92.97
4199;BME280;2113;50.946;14.610;2023-04-24T03:13:15;95675.88;;;8.77;93.25
4199;BME280;2113;50.946;14.610;2023-04-24T03:15:43;95674.72;;;8.80;93.00
4199;BME280;2113;50.946;14.610;2023-04-24T03:18:13;95672.78;;;8.82;93.14
4199;BME280;2113;50.946;14.610;2023-04-24T03:20:42;95676.69;;;8.94;92.28
4199;BME280;2113;50.946;14.610;2023-04-24T03:23:15;95677.50;;;8.95;92.90
4199;BME280;2113;50.946;14.610;2023-04-24T03:25:43;95677.81;;;8.91;92.86
4199;BME280;2113;50.946;14.610;2023-04-24T03:28:12;95678.97;;;8.89;92.87
4199;BME280;2113;50.946;14.610;2023-04-24T03:30:48;95680.13;;;8.86;92.83
4199;BME280;2113;50.946;14.610;2023-04-24T03:33:17;95680.91;;;8.79;93.20
4199;BME280;2113;50.946;14.610;2023-04-24T03:35:55;95688.25;;;8.83;93.51
4199;BME280;2113;50.946;14.610;2023-04-24T03:38:26;95691.00;;;8.82;93.44
4199;BME280;2113;50.946;14.610;2023-04-24T03:41:00;95689.84;;;8.76;93.52
4199;BME280;2113;50.946;14.610;2023-04-24T03:43:35;95693.94;;;8.71;93.92
4199;BME280;2113;50.946;14.610;2023-04-24T03:46:04;95696.38;;;8.72;93.87
4199;BME280;2113;50.946;14.610;2023-04-24T03:48:37;95692.28;;;8.62;94.13
4199;BME280;2113;50.946;14.610;2023-04-24T03:51:08;95690.19;;;8.57;94.77
4199;BME280;2113;50.946;14.610;2023-04-24T03:53:40;95687.38;;;8.42;95.16
4199;BME280;2113;50.946;14.610;2023-04-24T03:56:10;95682.25;;;8.25;95.70
4199;BME280;2113;50.946;14.610;2023-04-24T03:58:40;95680.41;;;8.09;96.11
4199;BME280;2113;50.946;14.610;2023-04-24T04:01:09;95686.13;;;8.04;96.54
4199;BME280;2113;50.946;14.610;2023-04-24T04:03:54;95684.41;;;8.29;96.80
4199;BME280;2113;50.946;14.610;2023-04-24T04:06:24;95680.53;;;8.33;96.76
4199;BME280;2113;50.946;14.610;2023-04-24T04:08:56;95687.84;;;8.38;96.48
4199;BME280;2113;50.946;14.610;2023-04-24T04:11:25;95688.50;;;8.40;96.86
4199;BME280;2113;50.946;14.610;2023-04-24T04:13:53;95685.09;;;8.39;96.81
4199;BME280;2113;50.946;14.610;2023-04-24T04:16:21;95689.13;;;8.34;97.05
4199;BME280;2113;50.946;14.610;2023-04-24T04:18:55;95680.78;;;8.22;96.91
4199;BME280;2113;50.946;14.610;2023-04-24T04:21:24;95687.16;;;8.19;97.64
4199;BME280;2113;50.946;14.610;2023-04-24T04:24:04;95687.78;;;8.21;97.72
4199;BME280;2113;50.946;14.610;2023-04-24T04:26:42;95689.09;;;8.26;97.62
4199;BME280;2113;50.946;14.610;2023-04-24T04:29:24;95691.56;;;8.35;97.81
4199;BME280;2113;50.946;14.610;2023-04-24T04:31:53;95696.16;;;8.49;96.95
4199;BME280;2113;50.946;14.610;2023-04-24T04:34:23;95692.44;;;8.52;97.00
4199;BME280;2113;50.946;14.610;2023-04-24T04:36:51;95693.09;;;8.62;96.94
4199;BME280;2113;50.946;14.610;2023-04-24T04:39:35;95698.47;;;8.77;96.87
4199;BME280;2113;50.946;14.610;2023-04-24T04:42:06;95702.41;;;8.81;95.96
4199;BME280;2113;50.946;14.610;2023-04-24T04:44:39;95702.56;;;8.87;95.68
4199;BME280;2113;50.946;14.610;2023-04-24T04:47:12;95703.22;;;8.98;95.26
4199;BME280;2113;50.946;14.610;2023-04-24T04:49:41;95707.78;;;8.96;94.92
4199;BME280;2113;50.946;14.610;2023-04-24T04:52:18;95713.31;;;9.01;94.49
4199;BME280;2113;50.946;14.610;2023-04-24T04:54:53;95710.06;;;8.99;95.19
4199;BME280;2113;50.946;14.610;2023-04-24T04:57:27;95708.44;;;8.98;95.31
4199;BME280;2113;50.946;14.610;2023-04-24T04:59:55;95711.34;;;9.03;95.39
4199;BME280;2113;50.946;14.610;2023-04-24T05:02:36;95715.41;;;9.05;95.27
4199;BME280;2113;50.946;14.610;2023-04-24T05:05:06;95720.00;;;9.11;95.23
4199;BME280;2113;50.946;14.610;2023-04-24T05:07:36;95716.56;;;9.19;94.67
4199;BME280;2113;50.946;14.610;2023-04-24T05:10:07;95716.38;;;9.37;94.43
4199;BME280;2113;50.946;14.610;2023-04-24T05:12:35;95719.97;;;9.36;94.13
4199;BME280;2113;50.946;14.610;2023-04-24T05:15:04;95728.59;;;9.36;94.14
4199;BME280;2113;50.946;14.610;2023-04-24T05:17:33;95728.28;;;9.39;93.95
4199;BME280;2113;50.946;14.610;2023-04-24T05:20:02;95724.03;;;9.38;94.08
4199;BME280;2113;50.946;14.610;2023-04-24T05:22:32;95728.28;;;9.39;94.53
4199;BME280;2113;50.946;14.610;2023-04-24T05:25:02;95728.44;;;9.38;94.42
4199;BME280;2113;50.946;14.610;2023-04-24T05:27:43;95735.91;;;9.33;94.24
4199;BME280;2113;50.946;14.610;2023-04-24T05:30:15;95733.81;;;9.28;94.80
4199;BME280;2113;50.946;14.610;2023-04-24T05:32:43;95736.75;;;9.25;94.13
4199;BME280;2113;50.946;14.610;2023-04-24T05:35:12;95739.84;;;9.29;94.44
4199;BME280;2113;50.946;14.610;2023-04-24T05:37:40;95741.13;;;9.33;94.51
4199;BME280;2113;50.946;14.610;2023-04-24T05:40:10;95736.06;;;9.47;93.87
4199;BME280;2113;50.946;14.610;2023-04-24T05:42:38;95742.91;;;9.65;93.32
4199;BME280;2113;50.946;14.610;2023-04-24T05:45:09;95742.06;;;9.80;92.94
4199;BME280;2113;50.946;14.610;2023-04-24T05:47:43;95743.53;;;9.83;91.96
4199;BME280;2113;50.946;14.610;2023-04-24T05:50:12;95749.88;;;9.80;92.37
4199;BME280;2113;50.946;14.610;2023-04-24T05:52:40;95746.75;;;9.85;91.59
4199;BME280;2113;50.946;14.610;2023-04-24T05:55:21;95743.97;;;9.86;91.56
4199;BME280;2113;50.946;14.610;2023-04-24T05:57:50;95735.63;;;9.99;91.08
4199;BME280;2113;50.946;14.610;2023-04-24T06:00:21;95751.91;;;10.01;92.18
4199;BME280;2113;50.946;14.610;2023-04-24T06:02:58;95751.91;;;10.09;92.10
4199;BME280;2113;50.946;14.610;2023-04-24T06:05:27;95742.13;;;10.19;91.39
4199;BME280;2113;50.946;14.610;2023-04-24T06:07:55;95748.09;;;10.36;90.53
4199;BME280;2113;50.946;14.610;2023-04-24T06:10:27;95740.22;;;10.44;90.75
4199;BME280;2113;50.946;14.610;2023-04-24T06:12:55;95740.09;;;10.38;91.12
4199;BME280;2113;50.946;14.610;2023-04-24T06:15:30;95748.91;;;10.37;91.17
4199;BME280;2113;50.946;14.610;2023-04-24T06:18:11;95736.94;;;10.42;91.29
4199;BME280;2113;50.946;14.610;2023-04-24T06:20:41;95739.38;;;10.52;89.77
4199;BME280;2113;50.946;14.610;2023-04-24T06:23:09;95734.84;;;10.68;88.10
4199;BME280;2113;50.946;14.610;2023-04-24T06:25:37;95735.31;;;10.72;88.75
4199;BME280;2113;50.946;14.610;2023-04-24T06:28:06;95733.75;;;10.63;89.29
4199;BME280;2113;50.946;14.610;2023-04-24T06:30:36;95730.25;;;10.48;89.97
4199;BME280;2113;50.946;14.610;2023-04-24T06:33:04;95735.81;;;10.45;89.60
4199;BME280;2113;50.946;14.610;2023-04-24T06:35:46;95741.78;;;10.22;89.34
4199;BME280;2113;50.946;14.610;2023-04-24T06:38:14;95746.63;;;10.33;90.44
4199;BME280;2113;50.946;14.610;2023-04-24T06:40:43;95749.19;;;10.42;90.79
4199;BME280;2113;50.946;14.610;2023-04-24T06:43:11;95749.03;;;10.43;89.71
4199;BME280;2113;50.946;14.610;2023-04-24T06:45:43;95746.56;;;10.50;89.15
4199;BME280;2113;50.946;14.610;2023-04-24T06:48:12;95750.31;;;10.47;88.37
4199;BME280;2113;50.946;14.610;2023-04-24T06:50:40;95759.47;;;10.43;88.28
4199;BME280;2113;50.946;14.610;2023-04-24T06:53:08;95761.78;;;10.38;88.79
4199;BME280;2113;50.946;14.610;2023-04-24T06:55:40;95760.66;;;10.32;88.33
4199;BME280;2113;50.946;14.610;2023-04-24T06:58:08;95758.03;;;10.32;87.73
4199;BME280;2113;50.946;14.610;2023-04-24T07:00:37;95749.16;;;10.50;87.93
4199;BME280;2113;50.946;14.610;2023-04-24T07:03:07;95758.56;;;10.59;86.04
4199;BME280;2113;50.946;14.610;2023-04-24T07:05:36;95755.09;;;10.66;85.52
4199;BME280;2113;50.946;14.610;2023-04-24T07:08:05;95756.84;;;10.74;86.22
4199;BME280;2113;50.946;14.610;2023-04-24T07:10:33;95756.22;;;10.72;86.19
4199;BME280;2113;50.946;14.610;2023-04-24T07:13:02;95761.91;;;10.76;87.11
4199;BME280;2113;50.946;14.610;2023-04-24T07:15:31;95763.47;;;10.62;86.72
4199;BME280;2113;50.946;14.610;2023-04-24T07:17:59;95762.56;;;10.78;86.01
4199;BME280;2113;50.946;14.610;2023-04-24T07:20:33;95761.03;;;10.83;85.22
4199;BME280;2113;50.946;14.610;2023-04-24T07:23:02;95767.00;;;10.69;84.52
4199;BME280;2113;50.946;14.610;2023-04-24T07:25:30;95774.56;;;10.64;84.62
4199;BME280;2113;50.946;14.610;2023-04-24T07:27:58;95767.06;;;10.61;84.86
4199;BME280;2113;50.946;14.610;2023-04-24T07:30:27;95763.47;;;10.54;86.20
4199;BME280;2113;50.946;14.610;2023-04-24T07:32:57;95765.72;;;10.65;85.41
4199;BME280;2113;50.946;14.610;2023-04-24T07:35:25;95769.91;;;10.74;83.28
4199;BME280;2113;50.946;14.610;2023-04-24T07:37:55;95771.28;;;10.93;83.09
4199;BME280;2113;50.946;14.610;2023-04-24T07:40:24;95770.88;;;11.04;81.09
4199;BME280;2113;50.946;14.610;2023-04-24T07:42:52;95765.81;;;11.02;81.89
4199;BME280;2113;50.946;14.610;2023-04-24T07:45:20;95768.94;;;10.98;80.95
4199;BME280;2113;50.946;14.610;2023-04-24T07:47:50;95773.13;;;11.07;81.18
4199;BME280;2113;50.946;14.610;2023-04-24T07:50:19;95769.31;;;11.18;79.68
4199;BME280;2113;50.946;14.610;2023-04-24T07:52:47;95765.75;;;11.11;78.64
4199;BME280;2113;50.946;14.610;2023-04-24T07:55:17;95774.13;;;11.06;81.10
4199;BME280;2113;50.946;14.610;2023-04-24T07:57:50;95776.94;;;10.96;82.07
4199;BME280;2113;50.946;14.610;2023-04-24T08:00:19;95776.50;;;11.16;82.06
4199;BME280;2113;50.946;14.610;2023-04-24T08:02:48;95776.91;;;11.04;83.24
4199;BME280;2113;50.946;14.610;2023-04-24T08:05:16;95781.78;;;11.08;82.31
4199;BME280;2113;50.946;14.610;2023-04-24T08:07:45;95770.97;;;11.11;82.77
4199;BME280;2113;50.946;14.610;2023-04-24T08:10:15;95778.13;;;11.17;81.94
4199;BME280;2113;50.946;14.610;2023-04-24T08:12:45;95778.88;;;11.02;81.34
4199;BME280;2113;50.946;14.610;2023-04-24T08:15:14;95782.38;;;11.18;81.09
4199;BME280;2113;50.946;14.610;2023-04-24T08:17:42;95779.56;;;11.42;80.68
4199;BME280;2113;50.946;14.610;2023-04-24T08:20:11;95787.97;;;11.52;78.77
4199;BME280;2113;50.946;14.610;2023-04-24T08:22:41;95790.06;;;11.57;78.62
4199;BME280;2113;50.946;14.610;2023-04-24T08:25:10;95786.59;;;11.42;79.96
4199;BME280;2113;50.946;14.610;2023-04-24T08:27:38;95787.66;;;11.32;79.32
4199;BME280;2113;50.946;14.610;2023-04-24T08:30:09;95796.78;;;11.14;80.50
4199;BME280;2113;50.946;14.610;2023-04-24T08:32:37;95795.31;;;11.11;81.99
4199;BME280;2113;50.946;14.610;2023-04-24T08:35:06;95791.84;;;11.19;80.91
4199;BME280;2113;50.946;14.610;2023-04-24T08:37:36;95786.34;;;11.51;77.67
4199;BME280;2113;50.946;14.610;2023-04-24T08:40:07;95787.25;;;11.44;77.50
4199;BME280;2113;50.946;14.610;2023-04-24T08:42:41;95789.78;;;11.52;76.23
4199;BME280;2113;50.946;14.610;2023-04-24T08:45:12;95786.13;;;11.61;78.21
4199;BME280;2113;50.946;14.610;2023-04-24T08:47:42;95780.13;;;11.75;77.66
4199;BME280;2113;50.946;14.610;2023-04-24T08:50:11;95778.34;;;11.53;78.38
4199;BME280;2113;50.946;14.610;2023-04-24T08:52:41;95778.97;;;11.55;79.89
4199;BME280;2113;50.946;14.610;2023-04-24T08:55:09;95786.09;;;11.46;77.60
4199;BME280;2113;50.946;14.610;2023-04-24T08:57:39;95785.75;;;11.26;78.22
4199;BME280;2113;50.946;14.610;2023-04-24T09:00:08;95797.06;;;11.19;78.53
4199;BME280;2113;50.946;14.610;2023-04-24T09:02:42;95787.28;;;11.35;78.95
4199;BME280;2113;50.946;14.610;2023-04-24T09:05:12;95792.63;;;11.65;76.69
4199;BME280;2113;50.946;14.610;2023-04-24T09:07:43;95778.81;;;11.94;75.43
4199;BME280;2113;50.946;14.610;2023-04-24T09:10:13;95780.59;;;11.93;75.63
4199;BME280;2113;50.946;14.610;2023-04-24T09:12:42;95781.78;;;12.05;74.24
4199;BME280;2113;50.946;14.610;2023-04-24T09:15:11;95788.81;;;12.64;71.56
4199;BME280;2113;50.946;14.610;2023-04-24T09:17:41;95774.41;;;12.74;72.30
4199;BME280;2113;50.946;14.610;2023-04-24T09:20:10;95776.00;;;13.47;71.56
4199;BME280;2113;50.946;14.610;2023-04-24T09:22:39;95777.50;;;13.57;64.66
4199;BME280;2113;50.946;14.610;2023-04-24T09:25:08;95787.63;;;13.17;68.61
4199;BME280;2113;50.946;14.610;2023-04-24T09:27:43;95776.06;;;13.33;70.72
4199;BME280;2113;50.946;14.610;2023-04-24T09:30:13;95775.88;;;13.83;65.99
4199;BME280;2113;50.946;14.610;2023-04-24T09:32:43;95784.72;;;13.55;67.18
4199;BME280;2113;50.946;14.610;2023-04-24T09:35:13;95782.50;;;13.51;68.11
4199;BME280;2113;50.946;14.610;2023-04-24T09:37:43;95775.91;;;13.34;68.40
4199;BME280;2113;50.946;14.610;2023-04-24T09:40:14;95780.03;;;12.71;71.31
4199;BME280;2113;50.946;14.610;2023-04-24T09:42:46;95772.00;;;12.58;72.74
4199;BME280;2113;50.946;14.610;2023-04-24T09:45:14;95772.31;;;12.49;72.79
4199;BME280;2113;50.946;14.610;2023-04-24T09:47:44;95770.22;;;12.95;68.82
4199;BME280;2113;50.946;14.610;2023-04-24T09:50:14;95774.59;;;13.24;69.39
4199;BME280;2113;50.946;14.610;2023-04-24T09:52:45;95772.50;;;13.40;67.08
4199;BME280;2113;50.946;14.610;2023-04-24T09:55:17;95768.09;;;13.20;68.50
4199;BME280;2113;50.946;14.610;2023-04-24T09:57:53;95776.06;;;13.11;67.39
4199;BME280;2113;50.946;14.610;2023-04-24T10:00:22;95761.47;;;12.88;66.50
4199;BME280;2113;50.946;14.610;2023-04-24T10:02:58;95766.31;;;13.05;63.93
4199;BME280;2113;50.946;14.610;2023-04-24T10:05:28;95757.50;;;13.13;66.86
4199;BME280;2113;50.946;14.610;2023-04-24T10:07:59;95760.94;;;13.13;66.46
4199;BME280;2113;50.946;14.610;2023-04-24T10:10:28;95764.75;;;12.75;67.08
4199;BME280;2113;50.946;14.610;2023-04-24T10:12:57;95757.50;;;12.56;68.52
4199;BME280;2113;50.946;14.610;2023-04-24T10:15:26;95764.59;;;12.62;67.02
4199;BME280;2113;50.946;14.610;2023-04-24T10:17:59;95760.81;;;12.64;66.30
4199;BME280;2113;50.946;14.610;2023-04-24T10:20:29;95766.38;;;12.25;68.29
4199;BME280;2113;50.946;14.610;2023-04-24T10:22:59;95763.09;;;11.94;67.99
4199;BME280;2113;50.946;14.610;2023-04-24T10:25:30;95765.25;;;11.90;67.91
4199;BME280;2113;50.946;14.610;2023-04-24T10:27:59;95765.63;;;12.17;69.22
4199;BME280;2113;50.946;14.610;2023-04-24T10:30:30;95772.31;;;12.19;68.91
4199;BME280;2113;50.946;14.610;2023-04-24T10:33:04;95776.03;;;12.10;68.10
4199;BME280;2113;50.946;14.610;2023-04-24T10:35:36;95776.56;;;12.05;68.60
4199;BME280;2113;50.946;14.610;2023-04-24T10:38:08;95780.97;;;11.90;71.38
4199;BME280;2113;50.946;14.610;2023-04-24T10:40:37;95780.53;;;11.87;72.49
4199;BME280;2113;50.946;14.610;2023-04-24T10:43:06;95781.50;;;11.63;72.85
4199;BME280;2113;50.946;14.610;2023-04-24T10:45:38;95788.75;;;11.38;76.90
4199;BME280;2113;50.946;14.610;2023-04-24T10:48:08;95790.66;;;10.98;78.77
4199;BME280;2113;50.946;14.610;2023-04-24T10:50:46;95789.66;;;10.77;79.93
4199;BME280;2113;50.946;14.610;2023-04-24T10:53:17;95800.34;;;10.59;82.00
4199;BME280;2113;50.946;14.610;2023-04-24T10:55:47;95799.03;;;10.55;81.76
4199;BME280;2113;50.946;14.610;2023-04-24T10:58:21;95788.59;;;10.63;81.83
4199;BME280;2113;50.946;14.610;2023-04-24T11:00:56;95794.22;;;10.75;83.35
4199;BME280;2113;50.946;14.610;2023-04-24T11:03:28;95799.00;;;10.94;82.14
4199;BME280;2113;50.946;14.610;2023-04-24T11:05:59;95799.38;;;10.91;81.98
4199;BME280;2113;50.946;14.610;2023-04-24T11:08:29;95788.00;;;11.07;83.04
4199;BME280;2113;50.946;14.610;2023-04-24T11:11:03;95793.97;;;10.92;81.52
4199;BME280;2113;50.946;14.610;2023-04-24T11:14:08;95788.06;;;11.21;82.57
4199;BME280;2113;50.946;14.610;2023-04-24T11:16:43;95785.88;;;11.33;81.03
4199;BME280;2113;50.946;14.610;2023-04-24T11:19:22;95790.88;;;11.34;81.58
4199;BME280;2113;50.946;14.610;2023-04-24T11:21:57;95797.16;;;11.71;81.42
4199;BME280;2113;50.946;14.610;2023-04-24T11:24:31;95796.00;;;11.73;79.42
4199;BME280;2113;50.946;14.610;2023-04-24T11:27:07;95787.47;;;11.94;79.26
4199;BME280;2113;50.946;14.610;2023-04-24T11:29:42;95786.53;;;11.50;78.85
4199;BME280;2113;50.946;14.610;2023-04-24T11:32:18;95784.47;;;11.83;80.84
4199;BME280;2113;50.946;14.610;2023-04-24T11:34:50;95784.31;;;11.99;79.83
4199;BME280;2113;50.946;14.610;2023-04-24T11:37:19;95785.84;;;12.37;78.62
4199;BME280;2113;50.946;14.610;2023-04-24T11:39:50;95781.06;;;12.56;76.60
4199;BME280;2113;50.946;14.610;2023-04-24T11:42:21;95784.00;;;11.79;76.95
4199;BME280;2113;50.946;14.610;2023-04-24T11:44:52;95792.81;;;12.01;78.96
4199;BME280;2113;50.946;14.610;2023-04-24T11:47:27;95795.22;;;12.17;77.25
4199;BME280;2113;50.946;14.610;2023-04-24T11:49:58;95799.59;;;12.39;76.90
4199;BME280;2113;50.946;14.610;2023-04-24T11:52:28;95802.38;;;12.38;74.86
4199;BME280;2113;50.946;14.610;2023-04-24T11:54:57;95795.06;;;12.19;73.19
4199;BME280;2113;50.946;14.610;2023-04-24T11:57:26;95791.56;;;12.12;73.27
4199;BME280;2113;50.946;14.610;2023-04-24T12:00:00;95794.16;;;12.26;74.18
4199;BME280;2113;50.946;14.610;2023-04-24T12:02:38;95791.81;;;12.46;73.78
4199;BME280;2113;50.946;14.610;2023-04-24T12:05:09;95788.50;;;12.73;71.50
4199;BME280;2113;50.946;14.610;2023-04-24T12:07:41;95775.69;;;12.78;72.03
4199;BME280;2113;50.946;14.610;2023-04-24T12:10:11;95776.38;;;12.87;71.16
4199;BME280;2113;50.946;14.610;2023-04-24T12:12:39;95782.19;;;13.19;68.98
4199;BME280;2113;50.946;14.610;2023-04-24T12:15:08;95769.91;;;13.04;68.82
4199;BME280;2113;50.946;14.610;2023-04-24T12:17:41;95763.94;;;12.74;68.62
4199;BME280;2113;50.946;14.610;2023-04-24T12:20:13;95765.75;;;12.74;69.18
4199;BME280;2113;50.946;14.610;2023-04-24T12:22:45;95750.22;;;12.72;69.22
4199;BME280;2113;50.946;14.610;2023-04-24T12:25:16;95751.97;;;12.87;68.31
4199;BME280;2113;50.946;14.610;2023-04-24T12:27:45;95749.66;;;13.34;70.02
4199;BME280;2113;50.946;14.610;2023-04-24T12:30:15;95749.59;;;13.77;64.78
4199;BME280;2113;50.946;14.610;2023-04-24T12:32:46;95743.72;;;14.03;63.69
4199;BME280;2113;50.946;14.610;2023-04-24T12:35:20;95752.13;;;13.92;66.13
4199;BME280;2113;50.946;14.610;2023-04-24T12:37:49;95748.75;;;14.39;64.93
4199;BME280;2113;50.946;14.610;2023-04-24T12:40:19;95751.72;;;14.57;62.49
4199;BME280;2113;50.946;14.610;2023-04-24T12:42:48;95747.94;;;14.32;60.99
4199;BME280;2113;50.946;14.610;2023-04-24T12:45:18;95737.81;;;14.35;61.13
4199;BME280;2113;50.946;14.610;2023-04-24T12:47:48;95730.34;;;14.32;58.98
4199;BME280;2113;50.946;14.610;2023-04-24T12:50:16;95738.72;;;14.49;58.19
4199;BME280;2113;50.946;14.610;2023-04-24T12:52:46;95733.19;;;14.37;58.93
4199;BME280;2113;50.946;14.610;2023-04-24T12:55:14;95729.03;;;14.49;60.91
4199;BME280;2113;50.946;14.610;2023-04-24T12:57:43;95737.03;;;14.35;59.28
4199;BME280;2113;50.946;14.610;2023-04-24T13:00:12;95737.81;;;14.29;58.62
4199;BME280;2113;50.946;14.610;2023-04-24T13:02:40;95736.59;;;13.90;61.42
4199;BME280;2113;50.946;14.610;2023-04-24T13:05:09;95737.84;;;14.01;61.75
4199;BME280;2113;50.946;14.610;2023-04-24T13:07:38;95722.41;;;14.19;61.08
4199;BME280;2113;50.946;14.610;2023-04-24T13:10:09;95713.31;;;14.56;62.06
4199;BME280;2113;50.946;14.610;2023-04-24T13:12:38;95707.34;;;14.88;60.17
4199;BME280;2113;50.946;14.610;2023-04-24T13:15:07;95708.47;;;14.66;59.32
4199;BME280;2113;50.946;14.610;2023-04-24T13:17:36;95708.53;;;14.38;62.31
4199;BME280;2113;50.946;14.610;2023-04-24T13:20:05;95712.34;;;13.95;63.65
4199;BME280;2113;50.946;14.610;2023-04-24T13:22:34;95712.16;;;13.90;62.43
4199;BME280;2113;50.946;14.610;2023-04-24T13:25:02;95698.84;;;13.63;61.56
4199;BME280;2113;50.946;14.610;2023-04-24T13:27:34;95713.00;;;13.41;64.16
4199;BME280;2113;50.946;14.610;2023-04-24T13:30:03;95707.72;;;13.34;65.24
4199;BME280;2113;50.946;14.610;2023-04-24T13:32:32;95712.66;;;13.23;67.61